メインページ
METAR-TAF:

METAR-TAF

空港 :

ダブリン空港

ダブリン, アイルランド

緯度: 53-26N, 経度: 006-15W, 海抜: 68m

現時点の気象観測

当レポートは17分前の10:00(UTC)に作成
北/北西の風 14kt
気温 15°C
湿度 51%
気圧 1030 hPa
視程10km以上
高度2200ftの雲はほとんどない
高度4000ftの雲は散在している

METAR: EIDW 211000Z 34014KT 9999 FEW022 SCT040 15/05 Q1030 NOSIG

時間: 11:17 (10:17 UTC)

予報

当レポートは5時間17分前の05:00(UTC)に作成
予報は21日の 06時(UTC)から 22日の 06時(UTC)まで有効
西/北西の風 10kt
視程10km以上
高度2000ftの雲はほとんどない
21日の 06時(UTC)から 21日の 09時(UTC)まで徐々に
北/北西の風 13kt
21日の 18時(UTC)から 21日の 21時(UTC)まで徐々に
北/北西の風 8kt
22日の 02時(UTC)から 22日の 05時(UTC)まで徐々に
北西の風 6kt

TAF: EIDW 210500Z 2106/2206 29010KT 9999 FEW020 BECMG 2106/2109 33013KT BECMG 2118/2121 34008KT BECMG 2202/2205 31006KT

4,000以上の空港の気象観測と天気予報(METAR報とTAF報)

利用可能な観測所は地図上に黄色い丸と赤い丸で示す。

丸の上にカーソルを重ねると観測所名を参照できる。

次にクリックすると気象観測と天気予報を参照できる。

マップの切り替え:黒色「×」印の緑ボタンをクリックして拡大、「-」印の緑ボタンをクリックして縮小、緑色の三角印をクリックして隣りの地図に切り替え


METAR-TAF: